Time;durP1;ratioP1;P1;durP2;ratioP2;P2;SDS_P1;SDS_P2;PMS_P1;PMS_P2;Temp;Humidity;BMP_temperature;BMP_pressure;BME280_temperature;BME280_humidity;BME280_pressure;Samples;Min_cycle;Max_cycle;Signal;HPM_P1;HPM_P2
2022/10/07 00:02:24;;;;;;;4.32;1.33;;;22.30;45.90;;;;;;5063380;28;20087;-43
2022/10/07 00:04:51;;;;;;;4.13;1.75;;;22.30;45.90;;;;;;5064635;28;20520;-42
2022/10/07 00:07:18;;;;;;;6.25;1.20;;;22.30;45.90;;;;;;5068449;28;20059;-41
2022/10/07 00:09:47;;;;;;;3.17;0.80;;;22.30;45.90;;;;;;5068776;28;20039;-44
2022/10/07 00:12:14;;;;;;;1.90;0.40;;;22.30;45.90;;;;;;5067131;28;20117;-43
2022/10/07 00:14:41;;;;;;;2.47;0.40;;;22.30;46.00;;;;;;5068156;28;20047;-41
2022/10/07 00:17:08;;;;;;;3.17;0.45;;;22.20;46.00;;;;;;5060209;28;20040;-41
2022/10/07 00:19:35;;;;;;;3.10;0.77;;;22.20;46.00;;;;;;5056273;28;20115;-44
2022/10/07 00:22:02;;;;;;;4.72;0.47;;;22.20;46.00;;;;;;5068501;28;20072;-41
2022/10/07 00:24:29;;;;;;;4.68;0.40;;;22.20;46.50;;;;;;5068181;28;20043;-42
2022/10/07 00:26:57;;;;;;;4.07;0.43;;;22.20;45.90;;;;;;5066345;28;20519;-41
2022/10/07 00:29:24;;;;;;;2.55;0.30;;;22.20;45.90;;;;;;5065238;28;20037;-41
2022/10/07 00:31:53;;;;;;;2.08;1.13;;;22.20;45.80;;;;;;5059307;28;20053;-42
2022/10/07 00:34:20;;;;;;;4.15;0.50;;;22.20;45.80;;;;;;5049542;28;20044;-43
2022/10/07 00:36:49;;;;;;;2.88;0.45;;;22.20;45.80;;;;;;5063947;28;20527;-42
2022/10/07 00:39:17;;;;;;;0.75;0.28;;;22.20;45.80;;;;;;5044053;28;20095;-42
2022/10/07 00:41:49;;;;;;;1.55;0.52;;;22.20;45.90;;;;;;5058965;28;20076;-42
2022/10/07 00:44:42;;;;;;;2.05;0.30;;;22.20;45.90;;;;;;5050393;28;20602;-42
2022/10/07 00:47:18;;;;;;;1.80;0.20;;;22.20;45.80;;;;;;5046213;28;20063;-42
2022/10/07 00:49:48;;;;;;;;;;;22.10;45.90;;;;;;5055947;28;20040;-41
2022/10/07 00:52:19;;;;;;;1.25;0.47;;;22.10;45.90;;;;;;5067924;28;20734;-41
2022/10/07 00:54:51;;;;;;;1.42;0.35;;;22.00;46.10;;;;;;5049919;28;20041;-42
2022/10/07 00:57:19;;;;;;;2.38;0.20;;;22.00;46.10;;;;;;5048149;28;20041;-41
2022/10/07 00:59:47;;;;;;;4.82;1.27;;;22.00;46.10;;;;;;5060949;28;20071;-42
2022/10/07 01:02:15;;;;;;;2.10;0.40;;;22.10;46.10;;;;;;5059787;28;20045;-42
2022/10/07 01:04:45;;;;;;;2.80;0.40;;;22.00;46.10;;;;;;5059925;28;20037;-42
2022/10/07 01:07:20;;;;;;;2.80;0.43;;;22.00;46.10;;;;;;5056619;28;20052;-41
2022/10/07 01:09:50;;;;;;;3.22;0.85;;;22.00;46.10;;;;;;5048095;28;20052;-42
2022/10/07 01:12:23;;;;;;;1.58;0.43;;;22.00;46.10;;;;;;5047220;28;20056;-41
2022/10/07 01:15:01;;;;;;;3.50;0.40;;;22.00;46.30;;;;;;5045682;28;20133;-42
2022/10/07 01:17:35;;;;;;;0.63;0.30;;;22.00;46.30;;;;;;5051897;28;20044;-42
2022/10/07 01:20:28;;;;;;;2.10;0.30;;;22.00;46.30;;;;;;5059475;28;20040;-41
2022/10/07 01:23:25;;;;;;;9.98;0.75;;;22.00;46.30;;;;;;5058664;28;20146;-41
2022/10/07 01:26:10;;;;;;;2.25;0.40;;;22.00;46.30;;;;;;5051726;28;20087;-41
2022/10/07 01:28:44;;;;;;;1.17;0.52;;;22.00;46.40;;;;;;5053885;28;20048;-41
2022/10/07 01:31:15;;;;;;;1.17;0.30;;;21.90;46.40;;;;;;5065754;28;20116;-43
2022/10/07 01:33:45;;;;;;;3.97;0.50;;;22.00;46.40;;;;;;5057352;28;20131;-41
2022/10/07 01:36:16;;;;;;;3.28;0.50;;;21.90;46.30;;;;;;5051948;28;20041;-42
2022/10/07 01:38:49;;;;;;;2.10;0.75;;;21.90;46.30;;;;;;5065397;28;20573;-42
2022/10/07 01:41:18;;;;;;;4.30;0.20;;;21.90;46.30;;;;;;5061989;28;20041;-42
2022/10/07 01:43:48;;;;;;;1.35;0.57;;;21.90;46.20;;;;;;5052748;28;20073;-42
2022/10/07 01:46:20;;;;;;;2.40;0.30;;;21.90;46.20;;;;;;5060258;28;20037;-42
2022/10/07 01:48:48;;;;;;;1.55;0.43;;;21.90;46.20;;;;;;5041392;28;20049;-42
2022/10/07 01:51:18;;;;;;;2.10;0.30;;;21.90;46.20;;;;;;5039997;28;20041;-42
2022/10/07 01:53:57;;;;;;;2.58;0.73;;;21.90;46.20;;;;;;5048227;28;20049;-42
2022/10/07 01:56:42;;;;;;;1.15;0.30;;;21.90;46.20;;;;;;5067329;28;20139;-42
2022/10/07 01:59:44;;;;;;;3.55;0.52;;;21.90;46.20;;;;;;5060274;28;20047;-42
2022/10/07 02:02:24;;;;;;;0.80;0.35;;;21.90;46.20;;;;;;5066634;28;20063;-42
2022/10/07 02:04:58;;;;;;;3.55;1.00;;;21.80;46.30;;;;;;5066857;28;20056;-42
2022/10/07 02:07:36;;;;;;;4.75;0.30;;;21.80;46.30;;;;;;5065400;28;20068;-42
2022/10/07 02:10:12;;;;;;;1.50;0.38;;;21.80;46.30;;;;;;5055655;28;20588;-42
2022/10/07 02:12:42;;;;;;;;;;;21.80;46.40;;;;;;5048642;28;20132;-41
2022/10/07 02:15:15;;;;;;;2.30;0.28;;;21.70;46.40;;;;;;5055736;28;20620;-42
2022/10/07 02:17:49;;;;;;;5.03;0.60;;;21.70;46.60;;;;;;5067228;28;20425;-42
2022/10/07 02:20:18;;;;;;;2.22;0.80;;;21.70;46.50;;;;;;5050212;28;20095;-42
2022/10/07 02:22:47;;;;;;;1.10;0.20;;;21.70;46.50;;;;;;5057181;28;20131;-42
2022/10/07 02:25:17;;;;;;;3.25;0.52;;;21.80;46.60;;;;;;5056967;28;20079;-42
2022/10/07 02:27:46;;;;;;;4.68;0.50;;;21.70;46.50;;;;;;5063352;28;20040;-41
2022/10/07 02:30:18;;;;;;;2.15;0.40;;;21.70;46.50;;;;;;5065242;28;20033;-42
2022/10/07 02:32:52;;;;;;;4.22;0.80;;;21.70;46.40;;;;;;5049913;28;20053;-42
2022/10/07 02:35:27;;;;;;;3.83;0.77;;;21.70;46.40;;;;;;5049650;28;20178;-42
2022/10/07 02:37:57;;;;;;;3.13;0.68;;;21.70;46.60;;;;;;5049753;28;20063;-42
2022/10/07 02:40:32;;;;;;;4.05;0.57;;;21.70;46.70;;;;;;5068997;28;20041;-41
2022/10/07 02:43:04;;;;;;;1.75;0.30;;;21.70;46.70;;;;;;5057831;28;20608;-42
2022/10/07 02:45:43;;;;;;;3.45;0.35;;;21.70;46.70;;;;;;5052891;28;20077;-41
2022/10/07 02:48:17;;;;;;;5.47;0.40;;;21.70;46.80;;;;;;5045804;28;20476;-41
2022/10/07 02:50:49;;;;;;;2.35;0.47;;;21.70;46.90;;;;;;5033156;28;20041;-41
2022/10/07 02:53:17;;;;;;;1.33;0.50;;;21.70;46.80;;;;;;5051476;28;20048;-41
2022/10/07 02:55:48;;;;;;;2.47;0.43;;;21.70;46.80;;;;;;5068592;28;20412;-41
2022/10/07 02:58:17;;;;;;;1.50;0.45;;;21.70;46.80;;;;;;5070694;28;20067;-41
2022/10/07 03:00:51;;;;;;;1.75;0.47;;;21.70;46.80;;;;;;5068573;28;20041;-41
2022/10/07 03:03:20;;;;;;;3.30;0.40;;;21.70;46.70;;;;;;5066387;28;20051;-41
2022/10/07 03:05:57;;;;;;;0.88;0.40;;;21.60;46.70;;;;;;5068123;28;20252;-41
2022/10/07 03:08:25;;;;;;;3.55;1.65;;;21.70;46.80;;;;;;5055539;28;20048;-41
2022/10/07 03:10:53;;;;;;;5.28;0.65;;;21.60;46.70;;;;;;5049900;28;20580;-42
2022/10/07 03:13:20;;;;;;;1.25;0.40;;;21.60;46.70;;;;;;5068378;28;20052;-44
2022/10/07 03:15:55;;;;;;;3.88;0.40;;;21.60;46.70;;;;;;5068055;28;20036;-42
2022/10/07 03:18:28;;;;;;;3.22;1.55;;;21.60;46.70;;;;;;5060594;28;20409;-42
2022/10/07 03:21:21;;;;;;;5.73;0.60;;;21.60;46.70;;;;;;5042734;28;20056;-42
2022/10/07 03:23:53;;;;;;;4.32;0.30;;;21.60;46.70;;;;;;5068207;28;20538;-42
2022/10/07 03:26:22;;;;;;;2.10;0.82;;;21.60;46.70;;;;;;5045684;28;20136;-42
2022/10/07 03:28:50;;;;;;;1.70;0.50;;;21.60;46.90;;;;;;5062391;28;20048;-42
2022/10/07 03:31:20;;;;;;;2.97;0.80;;;21.60;47.00;;;;;;5048897;28;20049;-42
2022/10/07 03:33:50;;;;;;;3.03;0.70;;;21.50;46.90;;;;;;5049122;28;20056;-42
2022/10/07 03:36:18;;;;;;;1.42;0.57;;;21.50;47.00;;;;;;5048735;28;20037;-42
2022/10/07 03:38:47;;;;;;;2.80;0.63;;;21.50;46.90;;;;;;5053723;28;20500;-42
2022/10/07 03:41:14;;;;;;;2.20;0.60;;;21.50;46.90;;;;;;5067816;28;20044;-42
2022/10/07 03:43:42;;;;;;;2.05;0.57;;;21.50;46.80;;;;;;5066798;28;20056;-42
2022/10/07 03:46:11;;;;;;;4.07;3.05;;;21.50;46.80;;;;;;5048558;28;20056;-42
2022/10/07 03:48:40;;;;;;;2.58;0.80;;;21.50;46.80;;;;;;5048631;28;20049;-42
2022/10/07 03:51:09;;;;;;;4.22;0.77;;;21.50;46.80;;;;;;5049574;28;20405;-42
2022/10/07 03:53:39;;;;;;;2.55;0.93;;;21.50;46.80;;;;;;5050320;28;20421;-42
2022/10/07 03:56:06;;;;;;;3.63;0.75;;;21.50;46.80;;;;;;5050656;28;20061;-42
2022/10/07 03:58:34;;;;;;;1.95;0.60;;;21.50;46.80;;;;;;5067641;28;20052;-42
2022/10/07 04:01:08;;;;;;;5.45;1.10;;;21.50;46.80;;;;;;5067138;28;20505;-42
2022/10/07 04:03:37;;;;;;;1.45;0.50;;;21.50;46.80;;;;;;5056509;28;20780;-42
2022/10/07 04:06:06;;;;;;;2.97;0.40;;;21.50;46.80;;;;;;5052722;28;20048;-42
2022/10/07 04:08:34;;;;;;;3.83;1.38;;;21.50;46.80;;;;;;5056168;28;20037;-42
2022/10/07 04:11:04;;;;;;;2.38;0.28;;;21.40;46.80;;;;;;5065048;28;20117;-43
2022/10/07 04:13:32;;;;;;;4.35;0.60;;;21.50;46.90;;;;;;5061435;28;20032;-43
2022/10/07 04:16:06;;;;;;;3.13;0.30;;;21.50;46.90;;;;;;5064936;28;20043;-42
2022/10/07 04:18:33;;;;;;;1.75;0.77;;;21.50;47.00;;;;;;5057492;28;20087;-42
2022/10/07 04:21:00;;;;;;;3.17;1.17;;;21.40;46.90;;;;;;5049365;28;20036;-42
2022/10/07 04:23:30;;;;;;;2.33;0.85;;;21.40;46.90;;;;;;5047775;28;20044;-42
2022/10/07 04:25:57;;;;;;;3.25;0.47;;;21.40;46.90;;;;;;5027962;28;20077;-42
2022/10/07 04:28:25;;;;;;;0.85;0.73;;;21.40;46.90;;;;;;5046508;28;20045;-43
2022/10/07 04:31:03;;;;;;;1.15;0.30;;;21.40;46.90;;;;;;5060431;28;20036;-42
2022/10/07 04:33:38;;;;;;;3.50;1.05;;;21.40;46.90;;;;;;5048532;28;20053;-42
2022/10/07 04:36:06;;;;;;;1.15;0.47;;;21.40;47.00;;;;;;5067002;28;20041;-42
2022/10/07 04:38:41;;;;;;;2.05;0.55;;;21.40;47.00;;;;;;5066673;28;20064;-43
2022/10/07 04:41:09;;;;;;;2.60;1.88;;;21.40;47.10;;;;;;5066004;28;20044;-42
2022/10/07 04:43:38;;;;;;;1.42;0.32;;;21.40;47.10;;;;;;5060992;28;20037;-42
2022/10/07 04:46:13;;;;;;;2.00;1.10;;;21.40;47.10;;;;;;5066697;28;20051;-42
2022/10/07 04:48:45;;;;;;;5.07;1.20;;;21.40;47.10;;;;;;5050140;28;20410;-42
2022/10/07 04:51:14;;;;;;;1.27;0.32;;;21.40;47.10;;;;;;5049559;28;20133;-43
2022/10/07 04:53:50;;;;;;;4.85;0.68;;;21.30;47.10;;;;;;5054559;28;20036;-42
2022/10/07 04:56:18;;;;;;;4.63;0.60;;;21.30;47.10;;;;;;5044454;28;20055;-43
2022/10/07 04:58:45;;;;;;;2.25;0.43;;;21.30;47.10;;;;;;5053293;28;20047;-42
2022/10/07 05:01:12;;;;;;;4.75;1.00;;;21.30;47.10;;;;;;5058547;28;20071;-42
2022/10/07 05:03:44;;;;;;;2.38;0.75;;;21.30;47.10;;;;;;5044407;28;20351;-41
2022/10/07 05:06:11;;;;;;;2.33;0.50;;;21.30;47.30;;;;;;5032966;28;20409;-43
2022/10/07 05:08:42;;;;;;;5.60;0.75;;;21.30;47.30;;;;;;5049932;28;20062;-44
2022/10/07 05:11:12;;;;;;;9.80;1.05;;;21.30;47.90;;;;;;5055036;28;20061;-45
2022/10/07 05:13:54;;;;;;;7.40;1.13;;;21.30;48.20;;;;;;5054620;28;20052;-43
2022/10/07 05:16:21;;;;;;;4.22;0.45;;;21.30;48.30;;;;;;5058734;28;20041;-45
2022/10/07 05:18:49;;;;;;;4.65;0.82;;;21.30;48.20;;;;;;5056270;28;20049;-43
2022/10/07 05:21:17;;;;;;;3.60;0.68;;;21.30;48.10;;;;;;5062891;28;20849;-44
2022/10/07 05:23:46;;;;;;;2.60;0.60;;;21.30;48.10;;;;;;5052829;28;20047;-44
2022/10/07 05:26:19;;;;;;;4.68;0.80;;;21.40;48.10;;;;;;5061408;28;20068;-44
2022/10/07 05:28:50;;;;;;;4.60;0.70;;;21.40;48.00;;;;;;5058294;28;20049;-47
2022/10/07 05:31:24;;;;;;;3.30;1.15;;;21.40;48.00;;;;;;5064008;28;20040;-47
2022/10/07 05:33:55;;;;;;;4.60;0.73;;;21.40;48.00;;;;;;5060558;28;20045;-49
2022/10/07 05:36:24;;;;;;;4.40;0.82;;;21.40;48.00;;;;;;5060481;28;20033;-47
2022/10/07 05:38:54;;;;;;;2.90;0.57;;;21.50;48.60;;;;;;5052925;28;20041;-47
2022/10/07 05:41:23;;;;;;;4.40;0.82;;;21.50;47.90;;;;;;5051976;28;20102;-48
2022/10/07 05:43:50;;;;;;;6.88;0.80;;;21.50;47.80;;;;;;5049932;28;20509;-47
2022/10/07 05:46:20;;;;;;;1.55;0.30;;;21.50;47.80;;;;;;5060851;28;20143;-46
2022/10/07 05:48:53;;;;;;;4.20;1.23;;;21.50;47.70;;;;;;5055710;28;20055;-46
2022/10/07 05:51:25;;;;;;;1.25;0.85;;;21.60;47.70;;;;;;5059819;28;20072;-45
2022/10/07 05:53:54;;;;;;;14.38;0.73;;;21.60;47.70;;;;;;5053058;28;20040;-47
2022/10/07 05:56:24;;;;;;;5.65;1.05;;;21.60;47.90;;;;;;5052810;28;20048;-48
2022/10/07 05:58:54;;;;;;;1.88;0.70;;;21.80;48.00;;;;;;5060267;28;20417;-49
2022/10/07 06:01:23;;;;;;;4.20;0.85;;;22.10;47.80;;;;;;5061066;28;20044;-48
2022/10/07 06:03:52;;;;;;;6.10;0.75;;;22.30;47.50;;;;;;5057242;28;20041;-45
2022/10/07 06:06:20;;;;;;;2.35;0.50;;;22.60;47.10;;;;;;5060187;28;20666;-42
2022/10/07 06:08:50;;;;;;;7.15;1.35;;;22.80;46.70;;;;;;5059845;28;20049;-44
2022/10/07 06:14:05;;;;;;;3.37;1.13;;;23.20;45.90;;;;;;5055036;28;20040;-45
2022/10/07 06:16:32;;;;;;;2.97;0.60;;;23.40;45.40;;;;;;5056441;28;20131;-43
2022/10/07 06:19:00;;;;;;;1.90;1.00;;;23.50;45.20;;;;;;5051401;28;20049;-43
2022/10/07 06:21:28;;;;;;;5.88;0.63;;;23.70;44.80;;;;;;5056911;28;20037;-47
2022/10/07 06:24:00;;;;;;;2.47;0.73;;;23.90;44.40;;;;;;5047231;28;20150;-44
2022/10/07 06:26:33;;;;;;;4.18;0.93;;;24.10;44.00;;;;;;5059518;28;20127;-47
2022/10/07 06:29:01;;;;;;;5.68;0.75;;;24.20;43.70;;;;;;5061848;28;20052;-49
2022/10/07 06:31:29;;;;;;;1.90;0.50;;;24.40;43.50;;;;;;5052301;28;20075;-47
2022/10/07 06:34:01;;;;;;;4.82;1.58;;;24.50;43.30;;;;;;5058164;28;20104;-47
2022/10/07 06:36:28;;;;;;;3.70;1.17;;;24.60;43.10;;;;;;5056039;28;20082;-47
2022/10/07 06:38:57;;;;;;;6.72;1.15;;;24.60;42.80;;;;;;5045849;28;20072;-47
2022/10/07 06:41:30;;;;;;;1.90;0.68;;;24.70;42.60;;;;;;5059696;28;20073;-46
2022/10/07 06:44:24;;;;;;;5.35;1.45;;;24.80;42.50;;;;;;5059019;28;20045;-46
2022/10/07 06:46:54;;;;;;;4.13;0.88;;;24.90;42.20;;;;;;5051439;28;20048;-46
2022/10/07 06:49:21;;;;;;;6.00;1.60;;;25.00;42.00;;;;;;5049378;28;20041;-48
2022/10/07 06:51:49;;;;;;;2.60;0.60;;;25.10;41.60;;;;;;5056917;28;20048;-50
2022/10/07 06:54:16;;;;;;;2.75;0.85;;;25.20;41.10;;;;;;5043265;28;20130;-50
2022/10/07 06:56:43;;;;;;;3.50;0.82;;;25.20;40.40;;;;;;5051133;28;20040;-49
2022/10/07 06:59:10;;;;;;;4.55;1.00;;;25.20;40.10;;;;;;5046202;28;20041;-48
2022/10/07 07:02:02;;;;;;;4.68;1.15;;;25.20;40.00;;;;;;5047703;28;20049;-47
2022/10/07 07:04:29;;;;;;;2.35;1.23;;;25.10;39.80;;;;;;5049199;28;20036;-49
2022/10/07 07:06:57;;;;;;;4.60;0.75;;;25.10;39.80;;;;;;5065651;28;20097;-49
2022/10/07 07:09:24;;;;;;;4.53;0.88;;;25.10;39.80;;;;;;5046144;28;20124;-47
2022/10/07 07:11:53;;;;;;;2.97;1.02;;;25.00;39.90;;;;;;5049149;28;20047;-48
2022/10/07 07:14:24;;;;;;;6.55;0.75;;;25.00;39.90;;;;;;5050281;28;20095;-50
2022/10/07 07:17:05;;;;;;;5.15;1.60;;;25.00;39.90;;;;;;5050358;28;20045;-47
2022/10/07 07:19:32;;;;;;;2.50;0.50;;;24.90;39.90;;;;;;5061349;28;20117;-50
2022/10/07 07:22:00;;;;;;;4.78;1.13;;;24.90;40.10;;;;;;5046730;28;20469;-46
2022/10/07 07:24:28;;;;;;;2.60;0.90;;;24.90;40.10;;;;;;5046964;28;20520;-45
2022/10/07 07:26:56;;;;;;;3.33;0.95;;;24.80;40.10;;;;;;5054098;28;20059;-45
2022/10/07 07:29:26;;;;;;;6.03;1.50;;;24.80;40.20;;;;;;5056420;28;20110;-46
2022/10/07 07:31:58;;;;;;;5.25;1.33;;;24.70;40.30;;;;;;5057683;28;20052;-46
2022/10/07 07:34:29;;;;;;;6.95;0.93;;;24.70;40.30;;;;;;5033042;28;20045;-47
2022/10/07 07:36:56;;;;;;;5.32;1.00;;;24.70;40.40;;;;;;5048422;28;20763;-48
2022/10/07 07:39:27;;;;;;;2.40;0.85;;;24.70;40.50;;;;;;5048639;28;20417;-48
2022/10/07 07:42:01;;;;;;;3.35;1.02;;;24.60;40.60;;;;;;5053604;28;20045;-48
2022/10/07 07:44:29;;;;;;;3.75;2.03;;;24.60;40.70;;;;;;5041066;28;20037;-47
2022/10/07 07:46:58;;;;;;;1.88;0.52;;;24.60;40.70;;;;;;5043877;28;20048;-49
2022/10/07 07:49:26;;;;;;;5.25;0.88;;;24.60;40.70;;;;;;5050926;28;20088;-47
2022/10/07 07:51:55;;;;;;;4.72;0.75;;;24.60;40.80;;;;;;5057709;28;20041;-48
2022/10/07 07:54:27;;;;;;;2.58;0.65;;;24.60;40.90;;;;;;5055458;28;20048;-49
2022/10/07 07:56:55;;;;;;;4.00;0.95;;;24.60;40.90;;;;;;5049496;28;20076;-48
2022/10/07 07:59:24;;;;;;;7.55;0.77;;;24.60;40.90;;;;;;5047261;28;20051;-49
2022/10/07 08:01:52;;;;;;;2.13;0.88;;;24.60;40.90;;;;;;5040147;28;20077;-50
2022/10/07 08:04:19;;;;;;;4.07;0.70;;;24.60;40.90;;;;;;5060295;28;20067;-45
2022/10/07 08:06:46;;;;;;;5.68;0.57;;;24.60;41.00;;;;;;5062777;28;20110;-48
2022/10/07 08:09:14;;;;;;;3.42;0.80;;;24.60;41.00;;;;;;5048758;28;20523;-47
2022/10/07 08:11:44;;;;;;;3.38;2.03;;;24.60;41.00;;;;;;5048941;28;20180;-46
2022/10/07 08:14:15;;;;;;;3.17;0.65;;;24.60;41.10;;;;;;5055789;28;20063;-48
2022/10/07 08:16:43;;;;;;;5.70;1.30;;;24.60;41.10;;;;;;5062397;28;20048;-48
2022/10/07 08:19:11;;;;;;;3.00;1.05;;;24.60;41.60;;;;;;5052929;28;20045;-50
2022/10/07 08:21:38;;;;;;;6.35;1.30;;;24.60;41.10;;;;;;5044735;28;20588;-48
2022/10/07 08:24:08;;;;;;;2.45;0.70;;;24.60;41.10;;;;;;5045866;28;20056;-47
2022/10/07 08:26:39;;;;;;;4.70;1.25;;;24.60;41.10;;;;;;5042477;28;20052;-48
2022/10/07 08:29:09;;;;;;;7.63;1.25;;;24.60;41.10;;;;;;5046310;28;20116;-49
2022/10/07 08:31:37;;;;;;;6.40;0.82;;;24.60;41.10;;;;;;5046256;28;20060;-44
2022/10/07 08:34:05;;;;;;;5.00;1.25;;;24.60;41.20;;;;;;5050123;28;20041;-49
2022/10/07 08:36:33;;;;;;;6.03;2.05;;;24.70;41.20;;;;;;5056733;28;20044;-47
2022/10/07 08:39:01;;;;;;;5.72;0.65;;;24.70;41.20;;;;;;5055225;28;20128;-47
2022/10/07 08:41:50;;;;;;;5.47;1.17;;;24.70;41.20;;;;;;5059051;28;20576;-46
2022/10/07 08:44:26;;;;;;;8.02;1.05;;;24.70;41.30;;;;;;5052544;28;20061;-47
2022/10/07 08:47:00;;;;;;;8.00;0.95;;;24.70;41.30;;;;;;5039474;28;20524;-49
2022/10/07 08:49:36;;;;;;;6.40;1.08;;;24.70;41.30;;;;;;5046082;28;20048;-46
2022/10/07 08:52:15;;;;;;;6.05;1.15;;;24.70;41.30;;;;;;5040487;28;20045;-44
2022/10/07 08:54:42;;;;;;;5.47;0.60;;;24.70;41.40;;;;;;5044748;28;20040;-47
2022/10/07 08:57:21;;;;;;;2.28;0.70;;;24.70;41.40;;;;;;5045645;28;20132;-44
2022/10/07 08:59:53;;;;;;;4.78;1.85;;;24.80;41.40;;;;;;5046151;28;20120;-46
2022/10/07 09:02:29;;;;;;;7.60;1.10;;;24.80;41.40;;;;;;5050960;28;20119;-54
2022/10/07 09:05:00;;;;;;;;;;;24.90;42.00;;;;;;5045328;28;20570;-45
2022/10/07 09:07:36;;;;;;;4.03;0.70;;;24.90;41.90;;;;;;5045037;28;20101;-44
2022/10/07 09:10:23;;;;;;;3.83;0.50;;;25.00;42.20;;;;;;5049906;28;20120;-48
2022/10/07 09:12:57;;;;;;;7.28;0.40;;;25.20;42.10;;;;;;5046329;28;20045;-49
2022/10/07 09:15:36;;;;;;;13.98;1.10;;;25.30;41.90;;;;;;5047736;28;20041;-45
2022/10/07 09:18:10;;;;;;;6.47;0.70;;;25.50;42.00;;;;;;5053060;28;20099;-46
2022/10/07 09:20:44;;;;;;;6.97;1.08;;;25.60;42.00;;;;;;5050764;28;20114;-44
2022/10/07 09:23:15;;;;;;;10.77;2.00;;;25.70;41.60;;;;;;5051309;28;20577;-43
2022/10/07 09:25:43;;;;;;;5.93;0.95;;;25.90;41.40;;;;;;5040064;28;20037;-44
2022/10/07 09:28:15;;;;;;;3.28;1.02;;;26.00;41.10;;;;;;5059210;28;20404;-43
2022/10/07 09:30:43;;;;;;;2.70;0.45;;;26.10;40.90;;;;;;5060591;28;20033;-46
2022/10/07 09:33:15;;;;;;;4.18;1.13;;;26.20;40.60;;;;;;5060681;28;20134;-49
2022/10/07 09:35:51;;;;;;;7.38;0.93;;;26.30;40.50;;;;;;5062536;28;20783;-48
2022/10/07 09:38:30;;;;;;;4.57;0.93;;;26.40;40.40;;;;;;5063860;28;20417;-45
2022/10/07 09:41:15;;;;;;;5.43;0.73;;;26.60;40.40;;;;;;5049046;28;20087;-45
2022/10/07 09:43:57;;;;;;;6.28;0.57;;;26.60;40.30;;;;;;5062383;28;20045;-45
2022/10/07 09:46:45;;;;;;;2.50;0.52;;;26.70;40.20;;;;;;5061703;28;20065;-47
2022/10/07 09:49:40;;;;;;;2.75;0.75;;;26.80;40.10;;;;;;5058694;28;20066;-45
2022/10/07 09:52:16;;;;;;;3.78;0.63;;;26.80;39.80;;;;;;5053602;28;20064;-44
2022/10/07 09:54:45;;;;;;;8.20;0.90;;;26.90;39.90;;;;;;5059554;28;20509;-44
2022/10/07 09:57:28;;;;;;;3.42;0.57;;;27.00;40.40;;;;;;5062412;28;20050;-45
2022/10/07 10:00:20;;;;;;;4.07;0.60;;;27.10;39.60;;;;;;5061305;28;20064;-45
2022/10/07 10:02:50;;;;;;;6.70;0.45;;;27.20;39.50;;;;;;5046750;28;20048;-45
2022/10/07 10:05:24;;;;;;;4.15;0.90;;;27.20;39.30;;;;;;5045188;28;20132;-45
2022/10/07 10:07:58;;;;;;;3.08;0.45;;;27.30;39.20;;;;;;5050923;28;20053;-46
2022/10/07 10:10:27;;;;;;;2.67;0.20;;;27.40;39.20;;;;;;5036202;28;20483;-44
2022/10/07 10:12:56;;;;;;;4.32;0.60;;;27.40;39.00;;;;;;5053460;28;20128;-44
2022/10/07 10:15:28;;;;;;;3.45;0.68;;;27.50;39.10;;;;;;5042873;28;20125;-43
2022/10/07 10:17:57;;;;;;;3.20;0.60;;;27.60;38.60;;;;;;5051865;28;20049;-42
2022/10/07 10:20:38;;;;;;;7.20;0.20;;;27.70;38.10;;;;;;5040519;28;20048;-43
2022/10/07 10:23:29;;;;;;;5.38;0.90;;;27.80;37.90;;;;;;5050015;28;20037;-42
2022/10/07 10:26:28;;;;;;;5.78;0.43;;;27.80;37.70;;;;;;5045875;28;20151;-42
2022/10/07 10:29:10;;;;;;;1.67;0.40;;;27.70;37.40;;;;;;5042102;28;20068;-40
2022/10/07 10:31:52;;;;;;;3.42;0.20;;;27.60;37.60;;;;;;5046972;28;20065;-40
2022/10/07 10:34:31;;;;;;;7.00;0.95;;;27.60;38.50;;;;;;5045437;28;20049;-40
2022/10/07 10:37:03;;;;;;;9.20;0.30;;;27.50;37.90;;;;;;5047594;28;20137;-40
2022/10/07 10:39:46;;;;;;;4.13;0.43;;;27.40;38.10;;;;;;5051121;28;20045;-41
2022/10/07 10:42:17;;;;;;;7.35;0.55;;;27.40;38.20;;;;;;5068320;28;20534;-41
2022/10/07 10:44:56;;;;;;;5.10;1.15;;;27.30;38.30;;;;;;5055338;28;20037;-40
2022/10/07 10:47:34;;;;;;;3.20;0.50;;;27.20;38.30;;;;;;5052199;28;20041;-41
2022/10/07 10:50:13;;;;;;;6.63;0.52;;;27.20;38.50;;;;;;5052018;28;20045;-40
2022/10/07 10:52:52;;;;;;;7.97;0.40;;;27.10;38.40;;;;;;5053674;28;20037;-40
2022/10/07 10:55:54;;;;;;;2.72;0.68;;;27.10;38.40;;;;;;5054598;28;20447;-40
2022/10/07 10:58:31;;;;;;;3.42;0.60;;;27.00;38.40;;;;;;5046382;28;20041;-40
2022/10/07 11:01:08;;;;;;;7.47;0.98;;;26.90;38.50;;;;;;5049456;28;20049;-41
2022/10/07 11:03:50;;;;;;;2.63;0.43;;;26.90;38.60;;;;;;5051091;28;20036;-40
2022/10/07 11:06:19;;;;;;;2.40;0.22;;;26.90;38.60;;;;;;5052216;28;20425;-40
2022/10/07 11:08:48;;;;;;;5.10;0.15;;;26.80;38.60;;;;;;5063254;28;20041;-40
2022/10/07 11:11:18;;;;;;;2.17;0.75;;;26.80;38.60;;;;;;5057264;28;20126;-40
2022/10/07 11:13:53;;;;;;;2.25;0.30;;;26.70;38.60;;;;;;5052922;28;20053;-40
2022/10/07 11:16:24;;;;;;;3.90;0.30;;;26.70;38.70;;;;;;5069520;28;20047;-45
2022/10/07 11:18:57;;;;;;;5.43;0.20;;;26.70;38.80;;;;;;5058321;28;20128;-39
2022/10/07 11:21:28;;;;;;;1.95;0.17;;;26.60;38.80;;;;;;5049202;28;20056;-40
2022/10/07 11:24:01;;;;;;;4.45;0.35;;;26.60;38.90;;;;;;5066540;28;20072;-40
2022/10/07 11:26:34;;;;;;;3.10;0.63;;;26.60;39.10;;;;;;5053604;28;20057;-40
2022/10/07 11:29:13;;;;;;;2.42;0.30;;;26.60;39.00;;;;;;5060844;28;20044;-40
2022/10/07 11:31:45;;;;;;;1.67;0.73;;;26.50;39.00;;;;;;5062280;28;20044;-41
2022/10/07 11:34:17;;;;;;;2.75;0.30;;;26.50;39.30;;;;;;5056507;28;20045;-40
2022/10/07 11:36:53;;;;;;;1.38;0.20;;;26.50;39.30;;;;;;5054212;28;20124;-40
2022/10/07 11:39:21;;;;;;;3.33;1.08;;;26.50;39.30;;;;;;5051498;28;20091;-40
2022/10/07 11:41:57;;;;;;;3.25;0.55;;;26.40;39.40;;;;;;5050312;28;20036;-40
2022/10/07 11:44:29;;;;;;;7.43;0.35;;;26.40;39.40;;;;;;5050384;28;20049;-40
2022/10/07 11:47:01;;;;;;;3.22;0.20;;;26.40;39.40;;;;;;5067017;28;20044;-40
2022/10/07 11:49:34;;;;;;;1.00;0.20;;;26.30;39.50;;;;;;5049512;28;20454;-40
2022/10/07 11:52:05;;;;;;;2.65;0.30;;;26.30;39.60;;;;;;5050176;28;20069;-40
2022/10/07 11:54:40;;;;;;;0.57;0.32;;;26.30;39.60;;;;;;5055614;28;20037;-39
2022/10/07 11:57:20;;;;;;;2.20;0.85;;;26.30;39.60;;;;;;5053116;28;20040;-40
2022/10/07 11:59:49;;;;;;;6.32;0.28;;;26.30;39.70;;;;;;5055984;28;20446;-40
2022/10/07 12:02:37;;;;;;;2.03;0.55;;;26.30;39.80;;;;;;5052564;28;20047;-39
2022/10/07 12:05:07;;;;;;;0.77;0.20;;;26.30;40.00;;;;;;5069102;28;20056;-40
2022/10/07 12:07:37;;;;;;;1.85;0.35;;;26.30;40.10;;;;;;5056014;28;20060;-46
2022/10/07 12:10:24;;;;;;;3.58;0.20;;;26.30;40.10;;;;;;5043127;28;20844;-50
2022/10/07 12:12:57;;;;;;;5.35;0.50;;;26.30;40.20;;;;;;5068941;28;20036;-41
2022/10/07 12:15:37;;;;;;;3.58;0.28;;;26.30;40.10;;;;;;5069152;28;20040;-41
2022/10/07 12:18:28;;;;;;;1.20;0.25;;;26.30;40.30;;;;;;5062022;28;20511;-40
2022/10/07 12:21:04;;;;;;;0.60;0.10;;;26.30;40.60;;;;;;5042415;28;20119;-41
2022/10/07 12:24:08;;;;;;;3.42;0.10;;;26.30;40.50;;;;;;5046221;28;20047;-41
2022/10/07 12:26:46;;;;;;;2.40;0.13;;;26.40;40.50;;;;;;5044444;28;20046;-41
2022/10/07 12:29:33;;;;;;;1.45;0.90;;;26.40;40.70;;;;;;5045999;28;20053;-45
2022/10/07 12:32:00;;;;;;;4.43;0.85;;;26.40;41.10;;;;;;5043249;28;20708;-44
2022/10/07 12:34:42;;;;;;;4.18;0.32;;;26.40;41.50;;;;;;5050354;28;20053;-43
2022/10/07 12:37:50;;;;;;;4.82;1.65;;;26.40;41.80;;;;;;5042083;28;20171;-43
2022/10/07 12:40:26;;;;;;;3.15;0.10;;;26.50;41.90;;;;;;5044801;28;20219;-43
2022/10/07 12:43:09;;;;;;;2.67;0.10;;;26.50;42.10;;;;;;5049542;28;20047;-41
2022/10/07 12:45:42;;;;;;;3.50;0.30;;;26.50;42.10;;;;;;5046935;28;20060;-46
2022/10/07 12:48:15;;;;;;;3.50;0.28;;;26.50;42.10;;;;;;5055045;28;20055;-45
2022/10/07 12:50:44;;;;;;;3.10;0.10;;;26.60;42.20;;;;;;5053242;28;20397;-47
2022/10/07 12:53:13;;;;;;;4.45;0.50;;;26.60;42.10;;;;;;5061394;28;20544;-49
2022/10/07 12:55:44;;;;;;;2.05;0.13;;;26.70;42.40;;;;;;5050447;28;20041;-50
2022/10/07 13:01:23;;;;;;;11.57;0.63;;;26.80;33.30;;;;;;5049001;28;20064;-51
2022/10/07 13:04:15;;;;;;;15.30;0.63;;;26.80;31.80;;;;;;5053925;28;20041;-48
2022/10/07 13:07:21;;;;;;;6.22;0.82;;;26.90;31.30;;;;;;5048111;28;20028;-49
2022/10/07 13:10:33;;;;;;;5.63;0.67;;;27.10;30.70;;;;;;5050591;28;20047;-59
2022/10/07 13:13:05;;;;;;;13.15;1.50;;;27.20;30.80;;;;;;5047499;28;20108;-50
2022/10/07 13:15:41;;;;;;;4.38;0.85;;;27.20;30.30;;;;;;5046076;28;20040;-48
2022/10/07 13:18:17;;;;;;;5.93;0.20;;;27.30;30.40;;;;;;5043989;28;20040;-50
2022/10/07 13:20:57;;;;;;;3.58;0.30;;;27.30;30.00;;;;;;5047603;28;20106;-49
2022/10/07 13:23:28;;;;;;;5.95;0.20;;;27.40;29.90;;;;;;5043790;28;20045;-50
2022/10/07 13:25:59;;;;;;;4.13;0.10;;;27.40;29.60;;;;;;5042452;28;20094;-49